Time;durP1;ratioP1;P1;durP2;ratioP2;P2;SDS_P1;SDS_P2;PMS_P1;PMS_P2;Temp;Humidity;BMP_temperature;BMP_pressure;BME280_temperature;BME280_humidity;BME280_pressure;Samples;Min_cycle;Max_cycle;Signal;HPM_P1;HPM_P2
2022/07/01 00:02:02;;;;;;;11.38;10.23;;;;;;;13.76;100.00;101343.44;4884612;29;20044;-73
2022/07/01 00:04:31;;;;;;;12.30;10.93;;;;;;;13.75;100.00;101346.38;4882629;29;20024;-73
2022/07/01 00:06:57;;;;;;;14.20;11.05;;;;;;;13.74;100.00;101342.00;4882910;29;20472;-70
2022/07/01 00:09:23;;;;;;;12.98;10.60;;;;;;;13.69;100.00;101344.59;4884983;29;20107;-74
2022/07/01 00:11:48;;;;;;;13.23;11.27;;;;;;;13.66;100.00;101337.72;4897491;29;20025;-72
2022/07/01 00:14:14;;;;;;;14.13;11.35;;;;;;;13.62;100.00;101337.38;4882704;29;20119;-71
2022/07/01 00:16:39;;;;;;;14.68;11.30;;;;;;;13.56;100.00;101334.78;4882927;29;20056;-71
2022/07/01 00:19:05;;;;;;;12.43;11.13;;;;;;;13.55;100.00;101335.84;4882598;29;20032;-71
2022/07/01 00:21:31;;;;;;;14.55;11.00;;;;;;;13.55;100.00;101331.22;4882094;29;20112;-71
2022/07/01 00:23:56;;;;;;;17.27;11.95;;;;;;;13.47;100.00;101324.22;4899441;29;20441;-73
2022/07/01 00:26:22;;;;;;;14.48;12.13;;;;;;;13.51;100.00;101330.00;4899055;29;20116;-74
2022/07/01 00:28:47;;;;;;;14.73;11.77;;;;;;;13.54;100.00;101320.56;4899896;29;20033;-73
2022/07/01 00:31:12;;;;;;;14.10;11.73;;;;;;;13.49;100.00;101317.72;4895601;29;20427;-71
2022/07/01 00:33:38;;;;;;;14.95;12.00;;;;;;;13.46;100.00;101325.28;4892072;29;20060;-71
2022/07/01 00:36:03;;;;;;;17.48;12.20;;;;;;;13.47;100.00;101307.91;4918072;29;20032;-72
2022/07/01 00:38:28;;;;;;;17.85;11.80;;;;;;;13.47;100.00;101297.03;4918267;29;20028;-73
2022/07/01 00:40:55;;;;;;;13.20;11.32;;;;;;;13.45;100.00;101292.88;4914390;29;20032;-70
2022/07/01 00:43:24;;;;;;;14.50;12.40;;;;;;;13.41;100.00;101291.72;4897353;29;20067;-72
2022/07/01 00:45:50;;;;;;;14.75;12.10;;;;;;;13.41;100.00;101305.31;4897984;29;20024;-73
2022/07/01 00:48:17;;;;;;;16.65;12.48;;;;;;;13.37;100.00;101296.78;4899362;29;20035;-71
2022/07/01 00:50:43;;;;;;;15.80;12.00;;;;;;;13.37;100.00;101295.97;4899282;29;20069;-72
2022/07/01 00:53:08;;;;;;;15.38;12.18;;;;;;;13.39;100.00;101293.81;4897399;29;20037;-73
2022/07/01 00:55:34;;;;;;;14.93;12.10;;;;;;;13.37;100.00;101298.66;4898049;29;20373;-70
2022/07/01 00:57:59;;;;;;;15.02;11.65;;;;;;;13.41;100.00;101313.47;4899351;29;20448;-71
2022/07/01 01:00:26;;;;;;;16.55;12.27;;;;;;;13.33;100.00;101301.00;4897919;29;20083;-71
2022/07/01 01:02:51;;;;;;;14.90;12.05;;;;;;;13.39;100.00;101304.69;4895163;29;20049;-73
2022/07/01 01:05:23;;;;;;;17.08;12.07;;;;;;;13.37;100.00;101309.53;4898395;29;20420;-72
2022/07/01 01:07:52;;;;;;;16.90;12.50;;;;;;;13.39;100.00;101316.41;4898607;29;20450;-72
2022/07/01 01:10:18;;;;;;;15.40;12.52;;;;;;;13.41;100.00;101319.72;4881857;29;20116;-73
2022/07/01 01:12:44;;;;;;;23.17;13.23;;;;;;;13.38;100.00;101319.38;4898117;29;20049;-70
2022/07/01 01:15:10;;;;;;;16.92;13.48;;;;;;;13.43;100.00;101330.34;4898535;29;20072;-72
2022/07/01 01:17:37;;;;;;;20.58;14.02;;;;;;;13.44;100.00;101340.19;4881893;29;20033;-71
2022/07/01 01:20:03;;;;;;;19.42;14.38;;;;;;;13.40;100.00;101342.53;4898653;29;20024;-72
2022/07/01 01:22:29;;;;;;;17.15;13.40;;;;;;;13.41;100.00;101354.25;4900305;29;20115;-71
2022/07/01 01:24:54;;;;;;;21.73;14.27;;;;;;;13.42;100.00;101359.44;4898836;29;20115;-73
2022/07/01 01:27:19;;;;;;;18.77;13.40;;;;;;;13.44;100.00;101356.50;4897332;29;20480;-72
2022/07/01 01:29:45;;;;;;;19.30;13.75;;;;;;;13.49;100.00;101353.06;4897925;29;20076;-72
2022/07/01 01:32:10;;;;;;;19.45;13.30;;;;;;;13.50;100.00;101354.72;4877875;29;20092;-72
2022/07/01 01:34:37;;;;;;;21.40;13.57;;;;;;;13.49;100.00;101358.50;4863002;29;20369;-71
2022/07/01 01:37:04;;;;;;;18.77;13.57;;;;;;;13.48;100.00;101349.50;4879459;29;20485;-71
2022/07/01 01:39:30;;;;;;;23.45;14.80;;;;;;;13.47;100.00;101350.59;4879684;29;20488;-71
2022/07/01 01:41:55;;;;;;;21.02;14.48;;;;;;;13.51;100.00;101351.75;4894077;29;20033;-72
2022/07/01 01:44:20;;;;;;;21.75;14.38;;;;;;;13.51;100.00;101353.66;4898013;29;20469;-73
2022/07/01 01:46:46;;;;;;;23.08;14.88;;;;;;;13.45;100.00;101344.53;4897860;29;20033;-73
2022/07/01 01:49:11;;;;;;;22.30;15.00;;;;;;;13.44;100.00;101346.44;4898023;29;20464;-74
2022/07/01 01:51:37;;;;;;;20.45;14.90;;;;;;;13.46;100.00;101349.75;4896032;29;20429;-75
2022/07/01 01:54:03;;;;;;;25.83;16.52;;;;;;;13.49;100.00;101353.91;4881233;29;20115;-73
2022/07/01 01:56:29;;;;;;;21.10;15.13;;;;;;;13.47;100.00;101356.03;4897848;29;20483;-70
2022/07/01 01:58:55;;;;;;;21.35;14.85;;;;;;;13.49;100.00;101342.22;4897967;29;20119;-71
2022/07/01 02:01:21;;;;;;;23.38;16.13;;;;;;;13.50;100.00;101350.13;4894436;29;20040;-74
2022/07/01 02:03:48;;;;;;;21.90;15.43;;;;;;;13.47;100.00;101348.69;4897942;29;20035;-71
2022/07/01 02:06:15;;;;;;;26.98;17.15;;;;;;;13.43;100.00;101361.09;4896975;29;20477;-73
2022/07/01 02:08:41;;;;;;;23.85;15.57;;;;;;;13.45;100.00;101358.97;4897851;29;20039;-70
2022/07/01 02:11:07;;;;;;;25.13;15.90;;;;;;;13.46;100.00;101359.81;4897565;29;20119;-70
2022/07/01 02:13:33;;;;;;;27.83;16.08;;;;;;;13.45;100.00;101366.28;4896997;29;20068;-70
2022/07/01 02:15:58;;;;;;;26.67;16.27;;;;;;;13.40;100.00;101363.44;4897729;29;20469;-70
2022/07/01 02:18:24;;;;;;;24.50;16.15;;;;;;;13.42;100.00;101375.75;4897308;29;20037;-74
2022/07/01 02:20:49;;;;;;;24.73;16.02;;;;;;;13.39;100.00;101378.94;4901271;29;20036;-70
2022/07/01 02:23:15;;;;;;;23.80;15.82;;;;;;;13.43;100.00;101382.00;4898973;29;20072;-70
2022/07/01 02:25:40;;;;;;;23.65;15.65;;;;;;;13.40;100.00;101387.91;4897668;29;20033;-72
2022/07/01 02:28:06;;;;;;;25.42;16.88;;;;;;;13.36;100.00;101392.16;4896197;29;20040;-74
2022/07/01 02:30:35;;;;;;;26.67;16.33;;;;;;;13.34;100.00;101405.16;4897237;29;20162;-76
2022/07/01 02:33:00;;;;;;;23.75;16.45;;;;;;;13.35;100.00;101383.16;4896310;29;20464;-70
2022/07/01 02:35:25;;;;;;;26.80;16.38;;;;;;;13.35;100.00;101357.88;4897218;29;20080;-73
2022/07/01 02:37:51;;;;;;;24.15;16.45;;;;;;;13.35;100.00;101333.44;4896708;29;20473;-71
2022/07/01 02:40:16;;;;;;;24.05;16.35;;;;;;;13.34;100.00;101348.06;4897286;29;20393;-73
2022/07/01 02:42:41;;;;;;;23.33;16.20;;;;;;;13.35;100.00;101360.59;4897192;29;20112;-76
2022/07/01 02:45:08;;;;;;;22.50;16.48;;;;;;;13.36;100.00;101362.25;4897643;29;20025;-73
2022/07/01 02:47:35;;;;;;;24.63;16.08;;;;;;;13.37;100.00;101366.63;4891272;29;20049;-73
2022/07/01 02:50:01;;;;;;;24.50;16.13;;;;;;;13.37;100.00;101385.66;4878783;29;20060;-69
2022/07/01 02:52:27;;;;;;;25.83;16.55;;;;;;;13.34;100.00;101383.41;4878472;29;20459;-72
2022/07/01 02:54:52;;;;;;;25.40;17.63;;;;;;;13.35;100.00;101380.44;4894813;29;20032;-70
2022/07/01 02:57:17;;;;;;;26.77;17.15;;;;;;;13.38;100.00;101387.31;4894767;29;20039;-70
2022/07/01 02:59:42;;;;;;;26.10;16.80;;;;;;;13.39;100.00;101387.09;4897341;29;20037;-75
2022/07/01 03:02:08;;;;;;;24.77;17.05;;;;;;;13.40;100.00;101382.47;4894050;29;20129;-70
2022/07/01 03:04:33;;;;;;;25.38;16.48;;;;;;;13.38;100.00;101380.00;4897105;29;20043;-69
2022/07/01 03:06:58;;;;;;;27.15;17.95;;;;;;;13.40;100.00;101379.75;4896017;29;20519;-74
2022/07/01 03:09:24;;;;;;;29.25;18.10;;;;;;;13.38;100.00;101379.16;4894426;29;20033;-72
2022/07/01 03:11:49;;;;;;;27.40;18.17;;;;;;;13.34;100.00;101383.41;4897234;29;20365;-73
2022/07/01 03:14:14;;;;;;;27.85;18.48;;;;;;;13.38;100.00;101380.00;4896998;29;20028;-69
2022/07/01 03:16:41;;;;;;;27.10;19.30;;;;;;;13.34;100.00;101383.41;4896224;29;20045;-71
2022/07/01 03:19:06;;;;;;;30.15;19.90;;;;;;;13.32;100.00;101388.22;4898753;29;20075;-74
2022/07/01 03:21:31;;;;;;;28.85;19.58;;;;;;;13.29;100.00;101386.78;4900617;29;20056;-74
2022/07/01 03:23:57;;;;;;;27.15;20.23;;;;;;;13.28;100.00;101374.25;4900813;29;20481;-73
2022/07/01 03:26:22;;;;;;;29.50;20.42;;;;;;;13.22;100.00;101380.59;4897154;29;20123;-69
2022/07/01 03:28:47;;;;;;;30.02;20.10;;;;;;;13.27;100.00;101388.88;4900647;29;20032;-71
2022/07/01 03:31:13;;;;;;;28.98;19.98;;;;;;;13.24;100.00;101387.47;4900354;29;20068;-73
2022/07/01 03:33:38;;;;;;;32.28;20.67;;;;;;;13.19;100.00;101384.59;4883696;29;20025;-70
2022/07/01 03:36:03;;;;;;;33.10;20.75;;;;;;;13.15;100.00;101405.16;4898430;29;20429;-70
2022/07/01 03:38:29;;;;;;;32.45;20.95;;;;;;;13.13;100.00;101407.25;4899177;29;20533;-69
2022/07/01 03:40:54;;;;;;;30.15;20.58;;;;;;;13.15;100.00;101418.75;4900367;29;20029;-74
2022/07/01 03:43:19;;;;;;;33.15;21.60;;;;;;;13.14;100.00;101417.06;4898327;29;20071;-76
2022/07/01 03:45:45;;;;;;;29.15;21.10;;;;;;;13.14;100.00;101425.22;4883510;29;20421;-72
2022/07/01 03:48:10;;;;;;;34.08;23.17;;;;;;;13.11;100.00;101429.22;4899885;29;20028;-72
2022/07/01 03:50:36;;;;;;;30.05;21.13;;;;;;;13.07;100.00;101432.63;4900077;29;20029;-73
2022/07/01 03:55:45;;;;;;;32.97;22.33;;;;;;;13.03;100.00;101436.84;4899980;29;20048;-71
2022/07/01 03:58:10;;;;;;;33.03;22.42;;;;;;;13.06;100.00;101442.66;4900423;29;20033;-71
2022/07/01 04:00:37;;;;;;;28.65;23.08;;;;;;;13.08;100.00;101450.59;4896832;29;20036;-72
2022/07/01 04:03:03;;;;;;;32.70;22.98;;;;;;;13.05;100.00;101448.34;4899271;29;20140;-72
2022/07/01 04:05:29;;;;;;;33.17;23.45;;;;;;;13.04;100.00;101455.63;4899828;29;20043;-74
2022/07/01 04:07:54;;;;;;;35.15;24.52;;;;;;;13.07;100.00;101454.34;4900014;29;20028;-75
2022/07/01 04:10:20;;;;;;;36.13;25.63;;;;;;;13.09;100.00;101458.53;4899742;29;20040;-71
2022/07/01 04:12:45;;;;;;;36.25;26.00;;;;;;;13.12;100.00;101455.34;4882232;29;20052;-74
2022/07/01 04:15:11;;;;;;;38.88;27.60;;;;;;;13.11;100.00;101444.69;4899843;29;20071;-73
2022/07/01 04:17:36;;;;;;;38.65;27.02;;;;;;;13.11;100.00;101450.13;4899287;29;20040;-71
2022/07/01 04:20:02;;;;;;;36.25;26.92;;;;;;;13.10;100.00;101453.91;4899760;29;20028;-72
2022/07/01 04:22:33;;;;;;;33.70;25.00;;;;;;;13.09;100.00;101461.22;4898543;29;20037;-72
2022/07/01 04:25:00;;;;;;;32.58;24.85;;;;;;;13.10;100.00;101453.91;4897941;29;20044;-74
2022/07/01 04:27:26;;;;;;;30.13;22.70;;;;;;;13.04;100.00;101449.38;4909233;29;20484;-75
2022/07/01 04:29:51;;;;;;;29.83;22.63;;;;;;;13.04;100.00;101444.75;4913037;29;20193;-73
2022/07/01 04:32:16;;;;;;;28.08;20.02;;;;;;;13.07;100.00;101444.34;4892249;29;20484;-76
2022/07/01 04:34:42;;;;;;;31.25;20.17;;;;;;;13.06;100.00;101450.00;4880796;29;20033;-71
2022/07/01 04:37:07;;;;;;;30.77;19.65;;;;;;;13.07;100.00;101448.91;4879123;29;20045;-75
2022/07/01 04:39:32;;;;;;;27.30;18.95;;;;;;;13.05;100.00;101456.47;4880574;29;20040;-74
2022/07/01 04:42:01;;;;;;;28.20;17.52;;;;;;;13.06;100.00;101461.69;4863713;29;20123;-70
2022/07/01 04:44:31;;;;;;;29.67;18.20;;;;;;;13.08;100.00;101454.13;4880279;29;20066;-74
2022/07/01 04:46:58;;;;;;;23.50;16.52;;;;;;;13.05;100.00;101460.03;4879801;29;20040;-74
2022/07/01 04:49:24;;;;;;;22.38;14.98;;;;;;;13.09;100.00;101463.13;4880388;29;20037;-69
2022/07/01 04:51:49;;;;;;;19.65;14.70;;;;;;;13.11;100.00;101453.69;4880270;29;20032;-74
2022/07/01 04:54:15;;;;;;;19.27;14.50;;;;;;;13.13;100.00;101464.31;4879996;29;20033;-74
2022/07/01 04:56:40;;;;;;;19.88;13.23;;;;;;;13.15;100.00;101462.22;4860913;29;20063;-75
2022/07/01 04:59:06;;;;;;;21.52;14.43;;;;;;;13.17;100.00;101457.38;4880292;29;20111;-72
2022/07/01 05:01:31;;;;;;;18.83;13.27;;;;;;;13.18;100.00;101456.31;4876766;29;20417;-71
2022/07/01 05:03:58;;;;;;;19.38;13.20;;;;;;;13.20;100.00;101450.66;4880372;29;20392;-75
2022/07/01 05:06:23;;;;;;;17.70;14.00;;;;;;;13.19;100.00;101452.53;4879310;29;20044;-73
2022/07/01 05:08:49;;;;;;;20.30;14.52;;;;;;;13.21;100.00;101471.34;4880344;29;20037;-71
2022/07/01 05:11:14;;;;;;;19.58;13.18;;;;;;;13.24;100.00;101473.59;4880169;29;20037;-70
2022/07/01 05:13:40;;;;;;;22.20;13.52;;;;;;;13.28;100.00;101469.38;4879951;29;20072;-76
2022/07/01 05:16:08;;;;;;;18.75;12.80;;;;;;;13.36;100.00;101473.69;4878124;29;20045;-72
2022/07/01 05:24:01;;;;;;;20.65;11.90;;;;;;;13.41;100.00;101471.13;4861195;29;20496;-69
2022/07/01 05:26:26;;;;;;;18.02;11.52;;;;;;;13.37;100.00;101467.22;4863871;29;20033;-74
2022/07/01 05:28:53;;;;;;;18.58;11.75;;;;;;;13.32;100.00;101472.47;4879834;29;20033;-73
2022/07/01 05:31:19;;;;;;;19.65;11.95;;;;;;;13.32;100.00;101478.72;4894460;29;20123;-73
2022/07/01 05:33:44;;;;;;;16.60;12.00;;;;;;;13.29;100.00;101473.75;4917029;29;20487;-74
2022/07/01 05:36:10;;;;;;;21.55;13.00;;;;;;;13.30;100.00;101470.81;4915183;29;20035;-74
2022/07/01 05:38:35;;;;;;;19.27;12.07;;;;;;;13.34;100.00;101473.91;4902688;29;20043;-76
2022/07/01 05:41:00;;;;;;;18.50;12.00;;;;;;;13.33;100.00;101474.97;4916603;29;20036;-71
2022/07/01 05:43:26;;;;;;;18.23;12.18;;;;;;;13.34;100.00;101476.63;4912211;29;20068;-74
2022/07/01 05:45:51;;;;;;;16.45;11.65;;;;;;;13.32;100.00;101478.72;4897857;29;20044;-72
2022/07/01 05:48:16;;;;;;;18.25;12.10;;;;;;;13.35;100.00;101480.22;4881402;29;20033;-72
2022/07/01 05:50:45;;;;;;;20.40;12.23;;;;;;;13.29;100.00;101474.56;4897973;29;20044;-74
2022/07/01 05:53:11;;;;;;;24.83;12.23;;;;;;;13.25;100.00;101478.78;4897505;29;20460;-74
2022/07/01 05:55:36;;;;;;;17.25;12.15;;;;;;;13.25;100.00;101477.97;4895456;29;20040;-74
2022/07/01 05:58:02;;;;;;;21.23;12.98;;;;;;;13.34;100.00;101482.06;4910612;29;20168;-72
2022/07/01 06:00:28;;;;;;;19.27;12.45;;;;;;;13.47;100.00;101481.91;4915250;29;20068;-73
2022/07/01 06:02:53;;;;;;;20.63;12.90;;;;;;;13.56;100.00;101476.19;4915095;29;20066;-72
2022/07/01 06:05:19;;;;;;;20.33;13.30;;;;;;;13.60;100.00;101474.63;4891460;29;20455;-69
2022/07/01 06:07:44;;;;;;;22.95;12.75;;;;;;;13.65;100.00;101472.91;4897683;29;20084;-70
2022/07/01 06:10:10;;;;;;;19.92;13.00;;;;;;;13.63;100.00;101477.75;4897822;29;20477;-68
2022/07/01 06:12:36;;;;;;;19.10;12.27;;;;;;;13.62;100.00;101477.97;4897604;29;20426;-70
2022/07/01 06:15:02;;;;;;;19.08;12.30;;;;;;;13.60;100.00;101489.09;4896636;29;20084;-72
2022/07/01 06:17:28;;;;;;;18.40;13.00;;;;;;;13.60;100.00;101486.38;4878727;29;20029;-71
2022/07/01 06:19:53;;;;;;;20.83;12.05;;;;;;;13.64;100.00;101484.00;4879088;29;20472;-68
2022/07/01 06:22:20;;;;;;;16.58;10.57;;;;;;;13.67;100.00;101480.81;4877844;29;20036;-68
2022/07/01 06:24:46;;;;;;;14.15;10.65;;;;;;;13.70;100.00;101483.06;4891746;29;20541;-72
2022/07/01 06:27:11;;;;;;;20.30;11.50;;;;;;;13.65;100.00;101482.94;4897584;29;20032;-70
2022/07/01 06:29:37;;;;;;;16.52;10.68;;;;;;;13.65;100.00;101491.94;4896999;29;20127;-72
2022/07/01 06:32:07;;;;;;;18.05;11.05;;;;;;;13.68;100.00;101482.50;4897646;29;20040;-69
2022/07/01 06:34:32;;;;;;;15.32;10.88;;;;;;;13.69;100.00;101475.16;4896501;29;20115;-71
2022/07/01 06:37:00;;;;;;;14.25;10.30;;;;;;;13.72;100.00;101471.97;4899767;29;20536;-69
2022/07/01 06:39:26;;;;;;;14.75;10.05;;;;;;;13.77;100.00;101474.84;4916159;29;20055;-71
2022/07/01 06:41:51;;;;;;;15.25;9.65;;;;;;;13.82;100.00;101477.69;4916351;29;20090;-71
2022/07/01 06:44:17;;;;;;;18.33;10.10;;;;;;;13.86;100.00;101473.44;4906148;29;20055;-68
2022/07/01 06:46:42;;;;;;;15.15;9.10;;;;;;;13.90;100.00;101473.81;4897136;29;20465;-72
2022/07/01 06:49:07;;;;;;;14.77;9.38;;;;;;;13.95;100.00;101474.78;4897166;29;20120;-70
2022/07/01 06:51:33;;;;;;;15.57;9.15;;;;;;;13.96;100.00;101468.25;4880305;29;20039;-72
2022/07/01 06:54:05;;;;;;;15.48;8.95;;;;;;;14.01;100.00;101478.47;4880883;29;20032;-71
2022/07/01 06:56:38;;;;;;;20.75;9.43;;;;;;;14.03;100.00;101467.34;4883705;29;20468;-72
2022/07/01 06:59:05;;;;;;;16.70;8.75;;;;;;;14.12;100.00;101466.75;4882655;29;20044;-70
2022/07/01 07:01:30;;;;;;;12.82;8.23;;;;;;;14.16;100.00;101475.28;4873407;29;20052;-71
2022/07/01 07:03:56;;;;;;;11.57;7.30;;;;;;;14.24;100.00;101477.69;4887743;29;20156;-70
2022/07/01 07:06:21;;;;;;;14.45;6.70;;;;;;;14.26;100.00;101480.97;4900818;29;20025;-71
2022/07/01 07:08:47;;;;;;;14.27;6.50;;;;;;;14.28;100.00;101486.19;4899772;29;20423;-72
2022/07/01 07:11:14;;;;;;;9.98;5.88;;;;;;;14.31;100.00;101483.00;4900981;29;20457;-72
2022/07/01 07:13:40;;;;;;;17.27;6.05;;;;;;;14.44;100.00;101503.75;4899936;29;20036;-69
2022/07/01 07:16:05;;;;;;;15.57;5.38;;;;;;;14.45;100.00;101510.88;4884094;29;20048;-72
2022/07/01 07:18:30;;;;;;;11.00;5.07;;;;;;;14.48;97.40;101513.13;4898965;29;20028;-69
2022/07/01 07:20:56;;;;;;;13.90;4.55;;;;;;;14.39;100.00;101515.34;4900561;29;20032;-71
2022/07/01 07:23:22;;;;;;;8.85;4.10;;;;;;;14.49;96.82;101515.59;4899563;29;20088;-70
2022/07/01 07:25:47;;;;;;;10.77;3.70;;;;;;;14.50;96.18;101510.97;4900485;29;20064;-70
2022/07/01 07:28:13;;;;;;;8.70;3.33;;;;;;;14.55;93.17;101516.53;4900369;29;20060;-72
2022/07/01 07:30:38;;;;;;;8.20;3.40;;;;;;;14.62;92.05;101509.13;4899827;29;20051;-69
2022/07/01 07:33:04;;;;;;;8.85;3.00;;;;;;;14.66;88.28;101506.75;4900274;29;20059;-70
2022/07/01 07:35:29;;;;;;;9.40;3.22;;;;;;;14.66;87.36;101504.88;4900369;29;20071;-69
2022/07/01 07:37:55;;;;;;;11.18;3.13;;;;;;;14.62;91.74;101506.41;4897860;29;20024;-69
2022/07/01 07:40:20;;;;;;;7.10;2.88;;;;;;;14.66;88.41;101510.31;4900625;29;20488;-69
2022/07/01 07:42:47;;;;;;;5.97;2.50;;;;;;;14.64;83.46;101517.88;4900232;29;20025;-71
2022/07/01 07:45:14;;;;;;;5.75;2.63;;;;;;;14.61;86.33;101515.63;4900544;29;20028;-69
2022/07/01 07:47:43;;;;;;;8.15;2.60;;;;;;;14.65;86.19;101516.81;4899300;29;20064;-71
2022/07/01 07:50:08;;;;;;;8.82;2.60;;;;;;;14.79;84.25;101519.31;4894735;29;20420;-72
2022/07/01 07:52:34;;;;;;;4.47;2.20;;;;;;;14.86;87.59;101525.47;4900071;29;20033;-69
2022/07/01 07:54:59;;;;;;;4.30;1.92;;;;;;;14.97;82.10;101532.81;4900012;29;20036;-72
2022/07/01 07:57:25;;;;;;;4.03;1.95;;;;;;;15.02;77.34;101530.22;4900911;29;20036;-69
2022/07/01 07:59:50;;;;;;;6.53;1.60;;;;;;;15.11;81.48;101533.38;4898161;29;20033;-72
2022/07/01 08:02:15;;;;;;;5.53;2.03;;;;;;;15.21;79.73;101525.44;4895631;29;20060;-72
2022/07/01 08:04:40;;;;;;;8.05;1.42;;;;;;;15.29;75.38;101535.16;4899615;29;20100;-72
2022/07/01 08:07:06;;;;;;;5.53;2.05;;;;;;;15.28;74.96;101533.50;4899969;29;20028;-71
2022/07/01 08:09:34;;;;;;;3.92;1.67;;;;;;;15.31;71.31;101522.13;4899074;29;20388;-70
2022/07/01 08:12:00;;;;;;;6.13;1.50;;;;;;;15.33;72.90;101535.50;4900000;29;20137;-71
2022/07/01 08:14:26;;;;;;;5.75;1.58;;;;;;;15.39;73.31;101542.72;4899609;29;20060;-73
2022/07/01 08:16:51;;;;;;;7.10;1.65;;;;;;;15.51;73.93;101553.63;4899030;29;20088;-72
2022/07/01 08:19:17;;;;;;;5.22;1.30;;;;;;;15.57;72.48;101555.38;4880960;29;20029;-70
2022/07/01 08:21:42;;;;;;;4.05;1.35;;;;;;;15.64;75.51;101550.63;4898355;29;20025;-72
2022/07/01 08:24:07;;;;;;;7.30;1.33;;;;;;;15.77;70.06;101549.50;4899788;29;20428;-70
2022/07/01 08:26:32;;;;;;;3.35;1.30;;;;;;;15.74;70.28;101564.44;4899332;29;20041;-72
2022/07/01 08:28:58;;;;;;;3.25;1.30;;;;;;;15.80;69.36;101567.31;4895939;29;20512;-68
2022/07/01 08:31:23;;;;;;;3.08;1.17;;;;;;;15.83;69.58;101561.38;4880979;29;20136;-70
2022/07/01 08:33:48;;;;;;;5.53;1.50;;;;;;;15.83;70.89;101564.13;4879474;29;20033;-70
2022/07/01 08:36:14;;;;;;;4.28;1.52;;;;;;;15.91;69.12;101563.72;4880584;29;20433;-72
2022/07/01 08:38:41;;;;;;;4.78;1.50;;;;;;;15.85;68.45;101561.94;4907274;29;20038;-71
2022/07/01 08:41:06;;;;;;;5.90;1.80;;;;;;;15.88;68.64;101566.94;4910507;29;20369;-72
2022/07/01 08:43:33;;;;;;;4.45;1.65;;;;;;;15.96;68.74;101569.28;4882454;29;20042;-68
2022/07/01 08:46:01;;;;;;;6.28;1.98;;;;;;;16.01;69.74;101579.47;4899321;29;20040;-68
2022/07/01 08:48:27;;;;;;;6.90;2.05;;;;;;;16.06;70.20;101582.28;4899345;29;20038;-70
2022/07/01 08:50:52;;;;;;;6.43;1.35;;;;;;;16.15;70.53;101585.47;4899068;29;20087;-71
2022/07/01 08:53:18;;;;;;;3.88;1.55;;;;;;;16.08;67.68;101582.88;4897997;29;20028;-70
2022/07/01 08:58:28;;;;;;;4.25;1.50;;;;;;;16.12;65.94;101592.22;4898786;29;20063;-72
2022/07/01 09:01:11;;;;;;;8.05;1.80;;;;;;;16.11;69.35;101602.34;4894740;29;20032;-72
2022/07/01 09:03:36;;;;;;;5.38;1.40;;;;;;;16.14;66.11;101601.03;4897067;29;20118;-70
2022/07/01 09:06:01;;;;;;;5.20;1.38;;;;;;;16.12;68.09;101594.97;4896512;29;20032;-72
2022/07/01 09:08:27;;;;;;;5.13;1.73;;;;;;;16.11;68.29;101599.59;4898827;29;20044;-69
2022/07/01 09:10:53;;;;;;;5.55;1.33;;;;;;;16.13;66.97;101608.38;4898699;29;20119;-69
2022/07/01 09:13:18;;;;;;;3.97;1.38;;;;;;;16.12;65.85;101604.00;4896733;29;20036;-69
2022/07/01 09:15:43;;;;;;;7.00;1.83;;;;;;;16.21;67.56;101595.41;4882235;29;20041;-71
2022/07/01 09:18:14;;;;;;;12.18;2.33;;;;;;;16.21;68.73;101584.47;4895552;29;20036;-69
2022/07/01 09:20:43;;;;;;;4.03;1.58;;;;;;;16.18;67.63;101587.69;4881433;29;20033;-72
2022/07/01 09:23:11;;;;;;;4.32;1.50;;;;;;;16.17;67.42;101588.75;4898387;29;20028;-69
2022/07/01 09:25:44;;;;;;;6.50;1.60;;;;;;;16.23;69.49;101598.72;4898246;29;20048;-72
2022/07/01 09:28:15;;;;;;;4.32;1.50;;;;;;;16.37;67.58;101600.06;4881764;29;20538;-71
2022/07/01 09:30:44;;;;;;;4.20;1.63;;;;;;;16.55;67.06;101599.03;4897533;29;20107;-71
2022/07/01 09:33:19;;;;;;;3.35;1.60;;;;;;;16.53;66.00;101597.59;4907956;29;20487;-71
2022/07/01 09:35:46;;;;;;;8.77;1.33;;;;;;;16.54;65.08;101612.94;4911187;29;20040;-73
2022/07/01 09:38:14;;;;;;;7.63;1.52;;;;;;;16.43;64.17;101612.75;4879972;29;20033;-72
2022/07/01 09:40:55;;;;;;;3.83;1.90;;;;;;;16.47;66.20;101604.88;4889479;29;20048;-74
2022/07/01 09:43:28;;;;;;;6.00;1.50;;;;;;;16.57;67.64;101609.72;4898143;29;20037;-73
2022/07/01 09:46:08;;;;;;;4.63;1.50;;;;;;;16.66;67.37;101608.22;4898158;29;20044;-72
2022/07/01 09:48:33;;;;;;;7.03;1.70;;;;;;;16.70;66.32;101612.13;4894770;29;20036;-73
2022/07/01 09:51:03;;;;;;;3.42;1.50;;;;;;;16.73;66.33;101613.53;4890261;29;20032;-72
2022/07/01 09:53:28;;;;;;;4.68;1.25;;;;;;;16.80;64.49;101608.72;4897356;29;20048;-74
2022/07/01 09:55:54;;;;;;;4.72;1.60;;;;;;;16.93;66.26;101618.53;4880731;29;20045;-73
2022/07/01 09:58:20;;;;;;;4.82;1.90;;;;;;;17.02;63.19;101617.03;4897525;29;20045;-73
2022/07/01 10:00:45;;;;;;;4.85;1.35;;;;;;;17.08;63.54;101607.03;4895213;29;20111;-74
2022/07/01 10:03:12;;;;;;;7.65;1.42;;;;;;;17.22;61.50;101607.50;4880102;29;20560;-75
2022/07/01 10:06:07;;;;;;;3.88;1.00;;;;;;;17.14;60.10;101614.22;4880755;29;20092;-75
2022/07/01 10:08:39;;;;;;;6.00;1.27;;;;;;;17.14;62.59;101612.31;4865574;29;20045;-74
2022/07/01 10:11:34;;;;;;;4.03;1.17;;;;;;;17.38;61.80;101634.00;4897501;29;20036;-71
2022/07/01 10:14:03;;;;;;;6.68;1.33;;;;;;;17.38;60.73;101627.66;4896265;29;20068;-75
2022/07/01 10:16:29;;;;;;;4.28;1.48;;;;;;;17.52;64.04;101616.13;4897359;29;20086;-76
2022/07/01 10:18:55;;;;;;;4.32;1.30;;;;;;;17.65;59.99;101633.28;4896872;29;20524;-74
2022/07/01 10:21:29;;;;;;;3.17;1.13;;;;;;;17.65;58.90;101628.63;4897562;29;20060;-72
2022/07/01 10:24:15;;;;;;;4.60;0.90;;;;;;;17.81;61.13;101624.16;4878857;29;20376;-71
2022/07/01 10:26:41;;;;;;;6.55;1.42;;;;;;;17.89;58.34;101639.34;4880147;29;20045;-75
2022/07/01 10:29:32;;;;;;;2.78;0.88;;;;;;;17.93;57.72;101642.41;4897371;29;20035;-75
2022/07/01 10:32:21;;;;;;;4.75;1.10;;;;;;;18.02;58.27;101654.56;4896348;29;20120;-73
2022/07/01 10:34:46;;;;;;;3.17;1.00;;;;;;;17.92;58.46;101651.69;4875684;29;20100;-74
2022/07/01 10:37:12;;;;;;;6.20;1.02;;;;;;;17.77;58.57;101657.75;4880589;29;20033;-72
2022/07/01 10:39:57;;;;;;;3.90;1.27;;;;;;;17.77;60.76;101655.88;4866406;29;20045;-72
2022/07/01 10:42:37;;;;;;;3.25;1.20;;;;;;;17.89;60.48;101651.13;4861906;29;20050;-74
2022/07/01 10:45:11;;;;;;;4.28;1.10;;;;;;;18.05;59.58;101646.66;4883204;29;20361;-72
2022/07/01 10:47:38;;;;;;;6.22;1.35;;;;;;;18.12;60.75;101632.78;4888606;29;20036;-73
2022/07/01 10:50:05;;;;;;;3.38;1.00;;;;;;;18.14;58.72;101638.00;4915815;29;20419;-73
2022/07/01 10:52:31;;;;;;;3.75;1.20;;;;;;;18.18;59.16;101637.22;4896523;29;20112;-73
2022/07/01 10:55:07;;;;;;;2.47;0.70;;;;;;;18.20;57.13;101636.97;4876545;29;20142;-75
2022/07/01 10:57:38;;;;;;;3.03;1.20;;;;;;;18.20;56.28;101626.00;4879371;29;20100;-74
2022/07/01 11:00:05;;;;;;;3.25;1.15;;;;;;;18.20;57.26;101637.78;4870114;29;20121;-76
2022/07/01 11:02:36;;;;;;;4.68;1.23;;;;;;;18.08;56.97;101645.31;4874782;29;20565;-73
2022/07/01 11:05:11;;;;;;;5.78;0.95;;;;;;;17.94;58.17;101635.84;4894700;29;20415;-77
2022/07/01 11:07:47;;;;;;;1.88;0.90;;;;;;;18.06;59.29;101639.28;4897330;29;20440;-77
2022/07/01 11:10:16;;;;;;;4.80;1.17;;;;;;;18.11;57.27;101641.25;4898319;29;20156;-73
2022/07/01 11:12:46;;;;;;;4.43;1.10;;;;;;;18.13;58.18;101626.22;4898254;29;20118;-75
2022/07/01 11:15:12;;;;;;;2.67;1.08;;;;;;;18.10;59.15;101621.25;4908478;29;20024;-75
2022/07/01 11:17:43;;;;;;;3.75;1.08;;;;;;;18.20;59.50;101615.88;4880704;29;20422;-74
2022/07/01 11:20:09;;;;;;;3.63;1.10;;;;;;;18.49;60.07;101612.84;4895682;29;20080;-76